CheckWX is a tool to help pilots better visualize weather data.  It is not intended as a substitute for an official pre-flight weather briefing.

20:39:26 UTC

KISO METAR
Kinston Regional Jetport at Stallings Field Airport
Kinston, North Carolina, USA
Current

43 mins ago

KISO 261956Z 35007KT 10SM CLR 33/17 A3008
Observed
Jun-26 @ 19:56 UTC
Wind
  • 350° at 7 KTS
Visibility
10 SM
Flight Rules
VFR
Cloud Levels
  • Clear skies
Temperature
33°C / 91°F
Dewpoint
17°C / 63°F
Humidity
38%
Altimeter
30.08" Hg
Pressure
1018.62 hPa
Previous

2 hours ago

KISO 261856Z 04004KT 10SM SCT060 SCT080 32/17 A3009
Observed
Jun-26 @ 18:56 UTC
Wind
  • 040° at 4 KTS
Visibility
10 SM
Flight Rules
VFR
Cloud Levels
  • Scattered at 6,000' AGL
  • Scattered at 8,000' AGL
Temperature
32°C / 90°F
Dewpoint
17°C / 63°F
Heat Index
33°C / 91°F
Humidity
41%
Altimeter
30.09" Hg
Pressure
1018.92 hPa
Previous

3 hours ago

KISO 261756Z 05005KT 10SM SCT060 SCT070 32/17 A3010
Observed
Jun-26 @ 17:56 UTC
Wind
  • 050° at 5 KTS
Visibility
10 SM
Flight Rules
VFR
Cloud Levels
  • Scattered at 6,000' AGL
  • Scattered at 7,000' AGL
Temperature
32°C / 90°F
Dewpoint
17°C / 63°F
Heat Index
33°C / 91°F
Humidity
41%
Altimeter
30.1" Hg
Pressure
1019.32 hPa